地図

経路データ

SID SEASON NUMBER BASIN SUBBASIN NAME ISO_TIME NATURE LAT LON WMO_WIND WMO_PRES WMO_AGENCY TRACK_TYPE DIST2LAND LANDFALL IFLAG USA_AGENCY USA_ATCF_ID USA_LAT USA_LON USA_RECORD USA_STATUS USA_WIND USA_PRES USA_SSHS USA_R34_NE USA_R34_SE USA_R34_SW USA_R34_NW USA_R50_NE USA_R50_SE USA_R50_SW USA_R50_NW USA_R64_NE USA_R64_SE USA_R64_SW USA_R64_NW USA_POCI USA_ROCI USA_RMW USA_EYE TOKYO_LAT TOKYO_LON TOKYO_GRADE TOKYO_WIND TOKYO_PRES TOKYO_R50_DIR TOKYO_R50_LONG TOKYO_R50_SHORT TOKYO_R30_DIR TOKYO_R30_LONG TOKYO_R30_SHORT TOKYO_LAND CMA_LAT CMA_LON CMA_CAT CMA_WIND CMA_PRES HKO_LAT HKO_LON HKO_CAT HKO_WIND HKO_PRES NEWDELHI_LAT NEWDELHI_LON NEWDELHI_GRADE NEWDELHI_WIND NEWDELHI_PRES NEWDELHI_CI NEWDELHI_DP NEWDELHI_POCI REUNION_LAT REUNION_LON REUNION_TYPE REUNION_WIND REUNION_PRES REUNION_TNUM REUNION_CI REUNION_RMW REUNION_R34_NE REUNION_R34_SE REUNION_R34_SW REUNION_R34_NW REUNION_R50_NE REUNION_R50_SE REUNION_R50_SW REUNION_R50_NW REUNION_R64_NE REUNION_R64_SE REUNION_R64_SW REUNION_R64_NW BOM_LAT BOM_LON BOM_TYPE BOM_WIND BOM_PRES BOM_TNUM BOM_CI BOM_RMW BOM_R34_NE BOM_R34_SE BOM_R34_SW BOM_R34_NW BOM_R50_NE BOM_R50_SE BOM_R50_SW BOM_R50_NW BOM_R64_NE BOM_R64_SE BOM_R64_SW BOM_R64_NW BOM_ROCI BOM_POCI BOM_EYE BOM_POS_METHOD BOM_PRES_METHOD NADI_LAT NADI_LON NADI_CAT NADI_WIND NADI_PRES WELLINGTON_LAT WELLINGTON_LON WELLINGTON_WIND WELLINGTON_PRES DS824_LAT DS824_LON DS824_STAGE DS824_WIND DS824_PRES TD9636_LAT TD9636_LON TD9636_STAGE TD9636_WIND TD9636_PRES TD9635_LAT TD9635_LON TD9635_WIND TD9635_PRES TD9635_ROCI NEUMANN_LAT NEUMANN_LON NEUMANN_CLASS NEUMANN_WIND NEUMANN_PRES MLC_LAT MLC_LON MLC_CLASS MLC_WIND MLC_PRES USA_GUST BOM_GUST BOM_GUST_PER REUNION_GUST REUNION_GUST_PER USA_SEAHGT USA_SEARAD_NE USA_SEARAD_SE USA_SEARAD_SW USA_SEARAD_NW STORM_SPEED STORM_DIR
1908072S18150 1908 13 SP EA NOT_NAMED 1908-03-11 23:00:00 NR -18.0000 150.200 1002 bom main 296 271 ______O___O___ -1 -18.0000 150.200 1002 -18.0000 150.200 7 13 199
1908072S18150 1908 13 SP EA NOT_NAMED 1908-03-12 00:00:00 TS -18.2052 150.132 main 271 209 ______P__OP___ -1 -18.2083 150.152 -18.2000 150.100 TC 25 1002 -18.2046 150.129 7 13 195
1908072S18150 1908 13 SP EA NOT_NAMED 1908-03-12 03:00:00 TS -18.8231 149.965 main 209 145 ______P__PP___ -1 -18.8334 150.005 -18.8124 149.978 TC -18.8199 149.917 7 13 194
1908072S18150 1908 13 SP EA NOT_NAMED 1908-03-12 06:00:00 TS -19.4431 149.804 main 145 99 ______P__PP___ -1 -19.4588 149.858 -19.4251 149.856 TC -19.4408 149.711 7 13 193
1908072S18150 1908 13 SP EA NOT_NAMED 1908-03-12 09:00:00 TS -20.0646 149.653 main 94 73 ______P__PP___ -1 -20.0843 149.709 -20.0380 149.732 TC -20.0716 149.518 7 13 193
1908072S18150 1908 13 SP EA NOT_NAMED 1908-03-12 11:00:00 TS -20.4826 149.553 main 72 54 ______P__PO___ -1 -20.5013 149.610 -20.4466 149.650 TC -20.5000 149.400 7 13 192
1908072S18150 1908 13 SP EA NOT_NAMED 1908-03-12 12:00:00 TS -20.6925 149.504 main 54 15 ______P__PP___ -1 -20.7097 149.560 -20.6510 149.608 TC -20.7169 149.345 7 13 192
1908072S18150 1908 13 SP EA NOT_NAMED 1908-03-12 15:00:00 TS -21.3233 149.363 main 15 0 ______P__PP___ -1 -21.3350 149.409 -21.2638 149.483 TC -21.3712 149.197 7 13 191
1908072S18150 1908 13 SP EA NOT_NAMED 1908-03-12 18:00:00 TS -21.9500 149.232 main 0 0 ______P__PP___ -1 -21.9598 149.256 -21.8763 149.356 TC -22.0139 149.085 7 13 191
1908072S18150 1908 13 SP EA NOT_NAMED 1908-03-12 21:00:00 TS -22.5723 149.106 main 0 0 ______P__PP___ -1 -22.5842 149.103 -22.4884 149.229 TC -22.6232 149.016 7 13 191
1908072S18150 1908 13 SP EA NOT_NAMED 1908-03-12 23:00:00 TS -22.9792 149.029 992 bom main 0 0 ______O__PO___ -1 -23.0000 149.000 992 -22.8962 149.143 TC -23.0000 149.000 7 12 187
1908072S18150 1908 13 SP EA NOT_NAMED 1908-03-13 00:00:00 TS -23.1536 149.034 main 0 0 ______P__OP___ -1 -23.1461 149.061 -23.1000 149.100 TC 45 992 -23.1746 148.990 7 10 172
1908072S18150 1908 13 SP EA NOT_NAMED 1908-03-13 03:00:00 NR -23.6223 149.120 main 0 0 ______P___P___ -1 -23.5842 149.244 TC -23.6603 148.996 7 9 168
1908072S18150 1908 13 SP EA NOT_NAMED 1908-03-13 06:00:00 NR -24.0630 149.243 main 0 0 ______P___P___ -1 -24.0222 149.429 TC -24.1038 149.058 7 9 164
1908072S18150 1908 13 SP EA NOT_NAMED 1908-03-13 09:00:00 NR -24.4920 149.398 main 0 0 ______P___P___ -1 -24.4602 149.615 TC -24.5238 149.181 7 9 161
1908072S18150 1908 13 SP EA NOT_NAMED 1908-03-13 11:00:00 NR -24.7760 149.520 main 0 0 ______P___O___ -1 -24.7520 149.740 TC -24.8000 149.300 7 9 158
1908072S18150 1908 13 SP EA NOT_NAMED 1908-03-13 12:00:00 NR -24.9184 149.587 main 0 0 ______P___P___ -1 -24.8979 149.802 TC -24.9389 149.371 7 9 155
1908072S18150 1908 13 SP EA NOT_NAMED 1908-03-13 15:00:00 NR -25.3477 149.809 main 0 0 ______P___P___ -1 -25.3353 149.991 TC -25.3600 149.627 7 10 154
1908072S18150 1908 13 SP EA NOT_NAMED 1908-03-13 18:00:00 NR -25.7791 150.056 main 0 0 ______P___P___ -1 -25.7724 150.181 TC -25.7858 149.931 7 10 152
1908072S18150 1908 13 SP EA NOT_NAMED 1908-03-13 21:00:00 NR -26.2116 150.319 main 0 0 ______P___P___ -1 -26.2091 150.372 TC -26.2141 150.267 7 10 151
1908072S18150 1908 13 SP EA NOT_NAMED 1908-03-13 23:00:00 NR -26.5000 150.500 1006 bom main 0 ______O___O___ -1 -26.5000 150.500 1006 TC -26.5000 150.500 7 10 151

デジタル台風データ・検索

IBTrACS Databaseについて

本データベースは、米国NOAAが公開する1842年以降の世界の熱帯低気圧のベストトラックデータアーカイブInternational Best Track Archive for Climate Stewardship (IBTrACS)を、ウェブで閲覧しやすい形式に変換したものです。

最終更新日:2021-10-21